Time;durP1;ratioP1;P1;durP2;ratioP2;P2;SDS_P1;SDS_P2;PMS_P1;PMS_P2;Temp;Humidity;BMP_temperature;BMP_pressure;BME280_temperature;BME280_humidity;BME280_pressure;Samples;Min_cycle;Max_cycle;Signal;HPM_P1;HPM_P2
2023/09/26 01:44:32;;;;;;;;;;;;;;;24.86;34.90;101092.23;109297;1264;67049;-92
2023/09/26 04:34:48;;;;;;;;;;;;;;;23.86;33.92;101159.36;108642;1266;555009;31
2023/09/26 06:38:13;;;;;;;;;;;;;;;24.57;34.47;101223.62;108962;1267;66957;-92
2023/09/26 06:40:43;;;;;;;;;;;;;;;24.58;34.48;101221.70;109043;1269;66201;31
2023/09/26 06:45:43;;;;;;;;;;;;;;;24.56;34.46;101217.91;109209;1264;67968;-89
2023/09/26 07:52:14;;;;;;;;;;;;;;;24.59;34.52;101235.03;108718;1266;68481;-91
2023/09/26 07:54:40;;;;;;;;;;;;;;;24.61;34.50;101231.69;108953;1266;67241;-88
2023/09/26 07:57:06;;;;;;;;;;;;;;;24.63;34.44;101234.51;109049;1265;67516;-89
2023/09/26 07:59:40;;;;;;;;;;;;;;;24.66;34.63;101233.67;108956;1265;67704;-91
2023/09/26 08:48:05;;;;;;;;;;;;;;;24.87;33.90;101209.08;109002;1265;67182;-89
2023/09/26 09:16:37;;;;;;;;;;;;;;;24.99;33.23;101208.20;108554;1266;555070;-88
2023/09/26 09:19:02;;;;;;;;;;;;;;;25.00;33.09;101204.53;108201;1266;555965;-91
2023/09/26 09:21:35;;;;;;;;;;;;;;;24.99;33.10;101208.86;109028;1266;66797;-90
2023/09/26 09:24:05;;;;;;;;;;;;;;;25.00;33.15;101199.85;108947;1266;74281;-91
2023/09/26 09:26:34;;;;;;;;;;;;;;;25.03;32.97;101199.98;108940;1266;67041;-91
2023/09/26 09:37:59;;;;;;;;;;;;;;;25.17;33.05;101190.02;109083;1266;74286;-90
2023/09/26 12:27:03;;;;;;;;;;;;;;;25.66;30.53;101135.20;108649;1269;67274;31
2023/09/26 12:57:15;;;;;;;;;;;;;;;25.85;30.61;101115.20;108817;1266;68131;-93
2023/09/26 14:08:04;;;;;;;;;;;;;;;25.86;29.68;101090.90;109036;1267;71263;-91
2023/09/26 14:10:29;;;;;;;;;;;;;;;25.85;29.55;101091.68;108922;1269;67770;-88
2023/09/26 14:12:58;;;;;;;;;;;;;;;25.86;29.63;101098.84;108957;1267;67686;-92
2023/09/26 14:39:30;;;;;;;;;;;;;;;25.76;29.86;101092.60;109037;1268;68215;-92
2023/09/26 14:42:04;;;;;;;;;;;;;;;25.75;29.96;101089.69;109108;1266;66800;-91
2023/09/26 15:05:03;;;;;;;;;;;;;;;25.75;29.71;101097.36;109045;1265;71714;-91
2023/09/26 15:13:14;;;;;;;;;;;;;;;25.76;29.90;101105.42;108874;1267;69224;-90
2023/09/26 15:21:56;;;;;;;;;;;;;;;25.75;29.96;101112.31;108240;1266;554264;-93
2023/09/26 15:27:00;;;;;;;;;;;;;;;25.74;29.79;101107.88;109007;1266;67103;-90
2023/09/26 15:32:32;;;;;;;;;;;;;;;25.73;29.81;101111.10;108555;1266;554064;-90
2023/09/26 15:35:12;;;;;;;;;;;;;;;25.73;29.77;101112.50;108944;1266;68074;-90
2023/09/26 15:37:40;;;;;;;;;;;;;;;25.71;29.90;101113.07;108902;1267;67771;-92
2023/09/26 15:40:12;;;;;;;;;;;;;;;25.72;29.88;101117.50;108950;1266;67472;-88
2023/09/26 15:48:04;;;;;;;;;;;;;;;25.70;29.85;101119.92;108522;1266;543370;-91
2023/09/26 16:24:04;;;;;;;;;;;;;;;25.63;29.85;101141.74;108920;1268;67577;-89
2023/09/26 16:26:30;;;;;;;;;;;;;;;25.63;29.74;101142.02;108892;1268;74220;-89
2023/09/26 16:28:55;;;;;;;;;;;;;;;25.61;29.86;101144.48;108830;1266;68584;-90
2023/09/26 16:33:58;;;;;;;;;;;;;;;25.60;29.71;101144.81;108699;1265;554519;-93
2023/09/26 16:36:31;;;;;;;;;;;;;;;25.60;30.00;101144.50;109013;1266;66973;31
2023/09/26 16:38:56;;;;;;;;;;;;;;;25.59;30.04;101147.85;108933;1266;74387;-89
2023/09/26 16:41:22;;;;;;;;;;;;;;;25.60;29.95;101155.27;108183;1266;555028;-90
2023/09/26 16:43:48;;;;;;;;;;;;;;;25.59;29.99;101161.56;108907;1266;68419;-90
2023/09/26 16:46:14;;;;;;;;;;;;;;;25.59;29.86;101161.66;109024;1266;68380;-88
2023/09/26 16:48:39;;;;;;;;;;;;;;;25.58;30.04;101163.73;108977;1266;67601;-89
2023/09/26 16:51:05;;;;;;;;;;;;;;;25.59;29.91;101166.88;108978;1265;67944;-88
2023/09/26 16:53:31;;;;;;;;;;;;;;;25.58;30.05;101167.75;109052;1267;67515;-88
2023/09/26 16:55:57;;;;;;;;;;;;;;;25.57;29.96;101169.66;109083;1267;66941;-89
2023/09/26 16:58:22;;;;;;;;;;;;;;;25.56;29.88;101170.29;109074;1266;67562;-88
2023/09/26 17:00:48;;;;;;;;;;;;;;;25.57;29.93;101170.03;109089;1267;67668;-91
2023/09/26 17:03:13;;;;;;;;;;;;;;;25.56;30.08;101175.08;109169;1265;67465;-88
2023/09/26 17:05:39;;;;;;;;;;;;;;;25.55;29.95;101177.25;109120;1267;67547;-88
2023/09/26 17:08:05;;;;;;;;;;;;;;;25.55;30.20;101180.03;109019;1265;67634;-89
2023/09/26 17:10:31;;;;;;;;;;;;;;;25.55;30.07;101185.81;109167;1266;67477;-89
2023/09/26 17:12:57;;;;;;;;;;;;;;;25.55;30.42;101183.55;109157;1266;67636;-89
2023/09/26 17:15:22;;;;;;;;;;;;;;;25.54;30.27;101192.80;109164;1266;67527;-89
2023/09/26 17:17:47;;;;;;;;;;;;;;;25.54;30.47;101194.79;109069;1266;67585;-90
2023/09/26 17:20:13;;;;;;;;;;;;;;;25.54;30.59;101195.77;109190;1265;67553;-89
2023/09/26 17:22:39;;;;;;;;;;;;;;;25.53;30.52;101198.55;108990;1266;66991;-89
2023/09/26 17:25:05;;;;;;;;;;;;;;;25.53;30.40;101199.11;109142;1266;67675;-89
2023/09/26 17:27:30;;;;;;;;;;;;;;;25.53;30.49;101197.11;109166;1266;67193;-89
2023/09/26 17:29:56;;;;;;;;;;;;;;;25.53;30.65;101202.46;109176;1266;66942;-89
2023/09/26 17:32:22;;;;;;;;;;;;;;;25.53;30.63;101204.16;109148;1267;67526;-89
2023/09/26 17:34:49;;;;;;;;;;;;;;;25.52;30.52;101204.63;108893;1266;67470;-90
2023/09/26 17:37:14;;;;;;;;;;;;;;;25.52;30.84;101210.45;108968;1265;67650;-89
2023/09/26 17:39:40;;;;;;;;;;;;;;;25.52;30.67;101209.02;108699;1266;363366;-90
2023/09/26 17:45:14;;;;;;;;;;;;;;;25.51;30.92;101207.12;108970;1268;66807;-89
2023/09/26 17:47:40;;;;;;;;;;;;;;;25.51;30.93;101209.09;108946;1268;67492;-89
2023/09/26 17:50:06;;;;;;;;;;;;;;;25.50;31.23;101212.23;108908;1267;67725;-89
2023/09/26 17:52:32;;;;;;;;;;;;;;;25.50;31.08;101213.94;108921;1268;67704;-90
2023/09/26 17:54:57;;;;;;;;;;;;;;;25.49;30.99;101215.13;109135;1265;67139;-90
2023/09/26 17:57:23;;;;;;;;;;;;;;;25.49;30.85;101213.37;109086;1266;67541;-90
2023/09/26 17:59:48;;;;;;;;;;;;;;;25.49;31.02;101218.02;109045;1266;67725;-89
2023/09/26 18:02:14;;;;;;;;;;;;;;;25.49;31.17;101217.76;108951;1266;67115;-89
2023/09/26 18:04:40;;;;;;;;;;;;;;;25.48;31.06;101220.45;108964;1266;68156;-90
2023/09/26 18:07:06;;;;;;;;;;;;;;;25.47;31.23;101221.84;108931;1265;67852;-89
2023/09/26 18:09:31;;;;;;;;;;;;;;;25.47;31.14;101218.69;108948;1265;67479;-89
2023/09/26 18:14:37;;;;;;;;;;;;;;;25.47;31.33;101221.05;109060;1266;67498;-89
2023/09/26 18:17:03;;;;;;;;;;;;;;;25.47;31.34;101219.37;108964;1265;67702;-90
2023/09/26 18:19:28;;;;;;;;;;;;;;;25.47;31.23;101219.06;108921;1265;68481;-89
2023/09/26 18:21:54;;;;;;;;;;;;;;;25.46;31.26;101225.09;108973;1265;67585;-89
2023/09/26 18:24:20;;;;;;;;;;;;;;;25.45;31.34;101220.87;109036;1264;67499;-89
2023/09/26 18:26:46;;;;;;;;;;;;;;;25.45;31.36;101219.72;109032;1266;67599;-89
2023/09/26 18:29:11;;;;;;;;;;;;;;;25.45;31.56;101221.42;109061;1266;66867;-89
2023/09/26 18:31:37;;;;;;;;;;;;;;;25.45;31.54;101218.30;109134;1266;67558;-89
2023/09/26 18:34:03;;;;;;;;;;;;;;;25.45;31.64;101221.55;109037;1267;67116;-89
2023/09/26 18:36:29;;;;;;;;;;;;;;;25.45;31.56;101221.08;109180;1265;67338;-89
2023/09/26 18:41:20;;;;;;;;;;;;;;;25.43;31.63;101223.61;109232;1265;67476;-89
2023/09/26 18:43:46;;;;;;;;;;;;;;;25.44;31.71;101225.61;109104;1265;67914;-88
2023/09/26 18:46:12;;;;;;;;;;;;;;;25.43;31.54;101227.36;109184;1266;68519;-91
2023/09/26 18:48:39;;;;;;;;;;;;;;;25.43;31.69;101229.23;109114;1265;66977;-89
2023/09/26 18:51:05;;;;;;;;;;;;;;;25.43;31.68;101228.34;109080;1265;67524;-88
2023/09/26 18:53:31;;;;;;;;;;;;;;;25.42;31.67;101226.00;109103;1265;67464;-89
2023/09/26 18:55:56;;;;;;;;;;;;;;;25.42;31.60;101226.27;108972;1266;67648;-88
2023/09/26 18:58:22;;;;;;;;;;;;;;;25.42;31.81;101224.81;109064;1267;67548;-89
2023/09/26 19:00:47;;;;;;;;;;;;;;;25.42;31.92;101222.55;108969;1265;67707;-89
2023/09/26 19:03:13;;;;;;;;;;;;;;;25.41;31.84;101223.44;109050;1265;67568;-89
2023/09/26 19:05:38;;;;;;;;;;;;;;;25.41;31.92;101223.18;109159;1265;67416;-89
2023/09/26 19:08:04;;;;;;;;;;;;;;;25.41;31.86;101220.30;109302;1265;66987;-89
2023/09/26 19:10:31;;;;;;;;;;;;;;;25.40;31.83;101223.08;109123;1266;66931;-90
2023/09/26 19:12:59;;;;;;;;;;;;;;;25.41;31.90;101219.70;109210;1265;68089;-90
2023/09/26 19:15:25;;;;;;;;;;;;;;;25.40;31.84;101216.23;109020;1267;67555;-90
2023/09/26 19:17:57;;;;;;;;;;;;;;;25.40;31.81;101220.00;109152;1265;67410;31
2023/09/26 19:20:26;;;;;;;;;;;;;;;25.39;31.81;101220.16;109189;1266;67398;-90
2023/09/26 19:22:51;;;;;;;;;;;;;;;25.39;32.02;101216.60;109020;1265;75141;-89
2023/09/26 19:25:17;;;;;;;;;;;;;;;25.39;32.11;101214.17;108916;1265;68241;-89
2023/09/26 19:27:43;;;;;;;;;;;;;;;25.38;32.08;101220.98;108997;1265;67539;-90
2023/09/26 19:30:08;;;;;;;;;;;;;;;25.39;32.11;101225.68;109056;1264;67414;-89
2023/09/26 19:32:34;;;;;;;;;;;;;;;25.38;32.05;101225.52;109057;1265;66897;-89
2023/09/26 19:35:00;;;;;;;;;;;;;;;25.38;32.15;101221.36;108980;1266;67776;-90
2023/09/26 19:37:26;;;;;;;;;;;;;;;25.38;32.14;101220.37;108932;1267;67647;-89
2023/09/26 19:39:52;;;;;;;;;;;;;;;25.37;32.13;101219.55;108934;1265;67452;-90
2023/09/26 19:42:18;;;;;;;;;;;;;;;25.36;31.97;101218.27;109091;1265;67800;-89
2023/09/26 19:44:50;;;;;;;;;;;;;;;25.36;32.42;101213.42;109080;1265;67700;31
2023/09/26 19:47:16;;;;;;;;;;;;;;;25.36;32.35;101215.23;109087;1265;67634;-90
2023/09/26 19:49:44;;;;;;;;;;;;;;;25.35;32.13;101217.15;109100;1265;67795;-90
2023/09/26 19:52:10;;;;;;;;;;;;;;;25.35;32.16;101223.21;108955;1267;67721;-90
2023/09/26 19:54:36;;;;;;;;;;;;;;;25.35;32.10;101229.16;108974;1265;67635;-90
2023/09/26 19:57:01;;;;;;;;;;;;;;;25.35;32.16;101235.23;109017;1266;67448;-89
2023/09/26 19:59:27;;;;;;;;;;;;;;;25.35;32.26;101237.03;109154;1266;67421;-89
2023/09/26 20:01:54;;;;;;;;;;;;;;;25.34;32.30;101235.59;109057;1266;67783;-89
2023/09/26 20:04:19;;;;;;;;;;;;;;;25.34;32.27;101232.70;109041;1265;67514;-90
2023/09/26 20:06:45;;;;;;;;;;;;;;;25.34;32.16;101234.66;109153;1265;67529;-90
2023/09/26 20:09:10;;;;;;;;;;;;;;;25.33;32.51;101231.78;109265;1265;66854;-90
2023/09/26 20:14:16;;;;;;;;;;;;;;;25.33;32.46;101244.05;108751;1265;555040;-89
2023/09/26 20:16:42;;;;;;;;;;;;;;;25.33;32.25;101245.17;109122;1266;67518;-89
2023/09/26 20:19:08;;;;;;;;;;;;;;;25.32;32.40;101243.13;108976;1266;67896;-89
2023/09/26 20:21:33;;;;;;;;;;;;;;;25.32;32.32;101241.95;109056;1266;67481;-89
2023/09/26 20:23:59;;;;;;;;;;;;;;;25.32;32.43;101243.89;109149;1264;67565;-89
2023/09/26 20:28:59;;;;;;;;;;;;;;;25.31;32.44;101245.23;109127;1265;74282;-89
2023/09/26 20:31:24;;;;;;;;;;;;;;;25.31;32.52;101245.45;108986;1266;67825;-88
2023/09/26 20:33:50;;;;;;;;;;;;;;;25.30;32.48;101250.34;109079;1265;67710;-89
2023/09/26 20:36:15;;;;;;;;;;;;;;;25.29;32.56;101249.98;108939;1266;67607;-89
2023/09/26 20:38:41;;;;;;;;;;;;;;;25.29;32.49;101251.94;108960;1268;66913;-89
2023/09/26 20:41:08;;;;;;;;;;;;;;;25.29;32.54;101252.82;109176;1266;67525;-90
2023/09/26 20:43:33;;;;;;;;;;;;;;;25.29;32.57;101251.90;109046;1266;67589;-89
2023/09/26 20:45:59;;;;;;;;;;;;;;;25.28;32.44;101253.54;109123;1265;67219;-89
2023/09/26 20:48:24;;;;;;;;;;;;;;;25.28;32.43;101258.33;109166;1265;67783;-89
2023/09/26 20:50:50;;;;;;;;;;;;;;;25.29;32.54;101252.56;109017;1266;67587;-89
2023/09/26 20:53:16;;;;;;;;;;;;;;;25.27;32.61;101246.56;109129;1265;67523;-89
2023/09/26 20:55:41;;;;;;;;;;;;;;;25.27;32.57;101247.58;109004;1266;67949;-89
2023/09/26 20:58:06;;;;;;;;;;;;;;;25.26;32.63;101244.40;109098;1266;68021;-89
2023/09/26 21:00:32;;;;;;;;;;;;;;;25.26;32.71;101243.78;109117;1267;70733;-89
2023/09/26 21:02:57;;;;;;;;;;;;;;;25.26;32.48;101240.17;109050;1266;67581;-89
2023/09/26 21:08:00;;;;;;;;;;;;;;;25.25;32.52;101244.62;108975;1268;67483;-89
2023/09/26 21:10:25;;;;;;;;;;;;;;;25.24;32.75;101243.69;108964;1266;74317;-89
2023/09/26 21:12:51;;;;;;;;;;;;;;;25.24;32.80;101245.70;109041;1265;66985;-89
2023/09/26 21:15:16;;;;;;;;;;;;;;;25.24;32.70;101238.39;108967;1266;67328;-89
2023/09/26 21:17:42;;;;;;;;;;;;;;;25.23;32.64;101242.46;108933;1267;66996;-89
2023/09/26 21:20:07;;;;;;;;;;;;;;;25.23;32.58;101239.52;109187;1265;67638;-89
2023/09/26 21:22:33;;;;;;;;;;;;;;;25.22;32.78;101246.59;108905;1266;67751;-89
2023/09/26 21:24:58;;;;;;;;;;;;;;;25.22;32.92;101243.45;109064;1265;67642;-89
2023/09/26 21:27:24;;;;;;;;;;;;;;;25.22;32.80;101241.43;109065;1266;66886;-89
2023/09/26 21:29:49;;;;;;;;;;;;;;;25.22;32.77;101238.60;109079;1266;67623;-89
2023/09/26 21:32:15;;;;;;;;;;;;;;;25.21;32.67;101239.38;109098;1266;67500;-89
2023/09/26 21:34:40;;;;;;;;;;;;;;;25.21;32.66;101237.42;109056;1266;67505;-89
2023/09/26 21:37:06;;;;;;;;;;;;;;;25.20;32.76;101234.74;109040;1266;67616;-89
2023/09/26 21:39:32;;;;;;;;;;;;;;;25.20;32.87;101232.02;108981;1266;67560;-89
2023/09/26 21:41:57;;;;;;;;;;;;;;;25.20;32.79;101231.15;109078;1266;67492;-89
2023/09/26 21:44:22;;;;;;;;;;;;;;;25.19;32.70;101225.27;109086;1266;67243;-89
2023/09/26 21:46:48;;;;;;;;;;;;;;;25.19;32.82;101221.73;109063;1266;66840;-89
2023/09/26 21:49:14;;;;;;;;;;;;;;;25.18;32.93;101225.64;109093;1266;66845;-89
2023/09/26 21:51:39;;;;;;;;;;;;;;;25.19;32.88;101225.23;109069;1266;66976;-88
2023/09/26 21:54:05;;;;;;;;;;;;;;;25.18;32.84;101223.84;109085;1266;67542;-88
2023/09/26 21:56:30;;;;;;;;;;;;;;;25.18;32.64;101225.29;108915;1269;67544;-90
2023/09/26 21:58:56;;;;;;;;;;;;;;;25.17;32.77;101227.34;108982;1267;67445;-89
2023/09/26 22:01:21;;;;;;;;;;;;;;;25.18;32.68;101223.95;109028;1266;67069;-89
2023/09/26 22:03:47;;;;;;;;;;;;;;;25.18;32.81;101224.71;108996;1267;66859;-89
2023/09/26 22:06:14;;;;;;;;;;;;;;;25.18;32.85;101223.80;108961;1266;67600;-89
2023/09/26 22:08:39;;;;;;;;;;;;;;;25.17;32.87;101223.89;109062;1267;67610;-89
2023/09/26 22:13:45;;;;;;;;;;;;;;;25.17;33.12;101224.58;108893;1268;67789;-88
2023/09/26 22:16:11;;;;;;;;;;;;;;;25.16;33.07;101219.95;108936;1268;67513;-89
2023/09/26 22:18:36;;;;;;;;;;;;;;;25.16;32.91;101214.84;108918;1268;67555;-88
2023/09/26 22:21:03;;;;;;;;;;;;;;;25.16;32.80;101214.23;109001;1266;67654;-89
2023/09/26 22:23:31;;;;;;;;;;;;;;;25.15;32.90;101213.47;109087;1266;67755;-89
2023/09/26 22:25:58;;;;;;;;;;;;;;;25.15;32.97;101216.45;108997;1266;67542;-89
2023/09/26 22:31:40;;;;;;;;;;;;;;;25.15;32.79;101217.12;109005;1267;67601;-89
2023/09/26 22:34:06;;;;;;;;;;;;;;;25.15;32.94;101217.12;109004;1266;67609;-89
2023/09/26 22:36:31;;;;;;;;;;;;;;;25.15;32.77;101212.84;109109;1266;66926;-89
2023/09/26 22:38:57;;;;;;;;;;;;;;;25.15;32.91;101214.95;108960;1266;67066;-89
2023/09/26 22:41:22;;;;;;;;;;;;;;;25.15;32.80;101213.41;108982;1268;66827;-89
2023/09/26 22:43:48;;;;;;;;;;;;;;;25.14;32.95;101214.34;109085;1266;67538;-89
2023/09/26 22:46:13;;;;;;;;;;;;;;;25.14;32.80;101214.14;108990;1265;67857;-89
2023/09/26 22:48:39;;;;;;;;;;;;;;;25.13;32.89;101216.92;108901;1266;67786;-89
2023/09/26 22:51:05;;;;;;;;;;;;;;;25.14;32.94;101217.54;109099;1265;67503;-89
2023/09/26 22:53:30;;;;;;;;;;;;;;;25.13;32.84;101208.48;109177;1265;67555;-89
2023/09/26 22:58:25;;;;;;;;;;;;;;;25.13;32.80;101213.16;109102;1265;67576;-90
2023/09/26 23:00:51;;;;;;;;;;;;;;;25.13;32.74;101206.67;109093;1265;67768;-88
2023/09/26 23:03:17;;;;;;;;;;;;;;;25.13;32.92;101205.38;109092;1269;67537;-89
2023/09/26 23:05:42;;;;;;;;;;;;;;;25.12;32.95;101203.59;108967;1265;66940;-89
2023/09/26 23:08:08;;;;;;;;;;;;;;;25.12;33.06;101197.66;108997;1265;67076;-90
2023/09/26 23:10:34;;;;;;;;;;;;;;;25.12;32.90;101195.60;108994;1266;67598;-89
2023/09/26 23:12:59;;;;;;;;;;;;;;;25.12;32.95;101193.77;109024;1266;66931;-90
2023/09/26 23:15:25;;;;;;;;;;;;;;;25.11;32.86;101195.88;109078;1265;67488;-89
2023/09/26 23:17:50;;;;;;;;;;;;;;;25.11;33.18;101196.80;109185;1265;67554;-89
2023/09/26 23:20:16;;;;;;;;;;;;;;;25.11;32.81;101193.96;108964;1267;67173;-88
2023/09/26 23:22:41;;;;;;;;;;;;;;;25.11;32.99;101190.26;109143;1266;67533;-89
2023/09/26 23:25:08;;;;;;;;;;;;;;;25.11;33.02;101190.16;109133;1265;66903;-89
2023/09/26 23:27:33;;;;;;;;;;;;;;;25.10;32.93;101190.52;109161;1265;67544;-89
2023/09/26 23:29:59;;;;;;;;;;;;;;;25.10;32.80;101185.95;109127;1265;67594;-89
2023/09/26 23:32:25;;;;;;;;;;;;;;;25.10;33.07;101189.19;109120;1265;66894;-89
2023/09/26 23:37:20;;;;;;;;;;;;;;;25.10;32.85;101185.89;109100;1265;67558;-89
2023/09/26 23:39:46;;;;;;;;;;;;;;;25.09;32.82;101186.56;109138;1266;67094;-89
2023/09/26 23:42:11;;;;;;;;;;;;;;;25.09;32.83;101189.91;109153;1266;67424;-89
2023/09/26 23:44:37;;;;;;;;;;;;;;;25.09;33.00;101188.16;109152;1266;67627;-89
2023/09/26 23:47:02;;;;;;;;;;;;;;;25.08;32.91;101188.83;109174;1266;67651;-89
2023/09/26 23:49:28;;;;;;;;;;;;;;;25.09;32.87;101191.55;109102;1266;66929;-89
2023/09/26 23:51:53;;;;;;;;;;;;;;;25.09;32.65;101188.21;109034;1265;67812;-90
2023/09/26 23:54:19;;;;;;;;;;;;;;;25.08;32.84;101182.26;109159;1265;67617;-90
2023/09/26 23:56:44;;;;;;;;;;;;;;;25.08;33.11;101186.52;109127;1265;67703;-89
2023/09/26 23:59:10;;;;;;;;;;;;;;;25.08;32.77;101183.84;109180;1265;66992;-89
